Time;durP1;ratioP1;P1;durP2;ratioP2;P2;SDS_P1;SDS_P2;PMS_P1;PMS_P2;Temp;Humidity;BMP_temperature;BMP_pressure;BME280_temperature;BME280_humidity;BME280_pressure;Samples;Min_cycle;Max_cycle;Signal;HPM_P1;HPM_P2
2022/03/22 00:00:59;;;;;;;36.92;24.05;;;6.80;99.90;;;;;;5089127;28;20469;-75
2022/03/22 00:03:25;;;;;;;39.78;24.67;;;6.70;99.90;;;;;;5092836;27;20032;-75
2022/03/22 00:05:52;;;;;;;38.05;23.95;;;6.70;99.90;;;;;;5068611;28;20086;-76
2022/03/22 00:08:18;;;;;;;37.92;24.02;;;6.70;99.90;;;;;;5059524;28;20084;-75
2022/03/22 00:10:44;;;;;;;36.00;23.90;;;6.70;99.90;;;;;;5086957;28;20127;-75
2022/03/22 00:13:09;;;;;;;37.70;23.38;;;6.70;99.90;;;;;;5086123;28;20437;-75
2022/03/22 00:15:36;;;;;;;37.00;22.13;;;6.60;99.90;;;;;;5071211;28;20044;-76
2022/03/22 00:18:02;;;;;;;38.95;25.08;;;6.60;99.90;;;;;;5084749;28;20123;-76
2022/03/22 00:20:28;;;;;;;39.63;23.70;;;6.60;99.90;;;;;;5087353;27;20138;-76
2022/03/22 00:22:54;;;;;;;36.17;24.13;;;6.60;99.90;;;;;;5086380;28;20036;-76
2022/03/22 00:25:20;;;;;;;45.85;25.25;;;6.50;99.90;;;;;;5085570;28;20434;-76
2022/03/22 00:27:57;;;;;;;39.72;23.35;;;6.50;99.90;;;;;;5075300;28;20040;-75
2022/03/22 00:30:26;;;;;;;43.17;24.50;;;6.50;99.90;;;;;;5066152;28;20054;-76
2022/03/22 00:32:54;;;;;;;41.33;24.90;;;6.50;99.90;;;;;;5097549;28;20173;-76
2022/03/22 00:35:28;;;;;;;38.90;23.55;;;6.50;99.90;;;;;;5095561;28;20052;-76
2022/03/22 00:37:56;;;;;;;37.05;22.83;;;6.40;99.90;;;;;;5056190;28;20063;-76
2022/03/22 00:40:24;;;;;;;35.20;23.00;;;6.40;99.90;;;;;;5091222;28;20067;-76
2022/03/22 00:42:52;;;;;;;38.47;23.38;;;6.40;99.90;;;;;;5082494;28;20219;-76
2022/03/22 00:45:18;;;;;;;38.75;23.88;;;6.40;99.90;;;;;;5084354;28;20396;-75
2022/03/22 00:47:48;;;;;;;35.20;23.75;;;6.40;99.90;;;;;;5086548;27;20047;-75
2022/03/22 00:50:16;;;;;;;36.42;22.30;;;6.30;99.90;;;;;;5086164;28;20134;-76
2022/03/22 00:52:43;;;;;;;37.47;23.05;;;6.30;99.90;;;;;;5087654;28;20052;-76
2022/03/22 00:55:10;;;;;;;35.75;23.50;;;6.30;99.90;;;;;;5087643;27;20055;-76
2022/03/22 00:57:36;;;;;;;35.42;23.30;;;6.30;99.90;;;;;;5086712;28;20128;-75
2022/03/22 01:00:05;;;;;;;36.90;23.38;;;6.30;99.90;;;;;;5087127;28;20127;-75
2022/03/22 01:02:34;;;;;;;37.42;23.88;;;6.30;99.90;;;;;;5086651;28;20047;-75
2022/03/22 01:05:03;;;;;;;37.20;22.92;;;6.30;99.90;;;;;;5064662;28;20066;-75
2022/03/22 01:07:29;;;;;;;36.15;23.33;;;6.30;99.90;;;;;;5084242;28;20042;-75
2022/03/22 01:09:55;;;;;;;38.50;24.52;;;6.30;99.90;;;;;;5083711;27;20044;-75
2022/03/22 01:12:21;;;;;;;38.97;25.02;;;6.30;99.90;;;;;;5086731;27;20104;-75
2022/03/22 01:14:47;;;;;;;39.08;24.95;;;6.20;99.90;;;;;;5068110;28;20048;-76
2022/03/22 01:17:12;;;;;;;40.30;25.77;;;6.20;99.90;;;;;;5085946;28;20043;-76
2022/03/22 01:19:39;;;;;;;46.45;27.88;;;6.20;99.90;;;;;;5066153;28;20397;-75
2022/03/22 01:22:06;;;;;;;46.03;26.50;;;6.20;99.90;;;;;;5086137;28;20061;-75
2022/03/22 01:24:32;;;;;;;42.83;26.20;;;6.20;99.90;;;;;;5083785;28;20199;-75
2022/03/22 01:26:57;;;;;;;42.58;25.63;;;6.20;99.90;;;;;;5084070;28;20208;-75
2022/03/22 01:29:23;;;;;;;37.80;24.25;;;6.10;99.90;;;;;;5088161;27;20887;-75
2022/03/22 01:31:49;;;;;;;38.47;25.05;;;6.10;99.90;;;;;;5089568;28;20332;-76
2022/03/22 01:34:16;;;;;;;41.72;26.13;;;6.10;99.90;;;;;;5085072;28;20088;-75
2022/03/22 01:36:41;;;;;;;41.92;25.27;;;6.10;99.90;;;;;;5085940;28;20066;-75
2022/03/22 01:39:07;;;;;;;47.97;27.52;;;6.10;99.90;;;;;;5088033;28;20075;-75
2022/03/22 01:41:34;;;;;;;42.75;25.15;;;6.10;99.90;;;;;;5084410;28;20045;-75
2022/03/22 01:44:00;;;;;;;38.47;26.00;;;6.10;99.90;;;;;;5064408;28;20043;-75
2022/03/22 01:46:27;;;;;;;44.53;27.15;;;6.10;99.90;;;;;;5086506;27;20148;-75
2022/03/22 01:48:54;;;;;;;38.65;24.35;;;6.10;99.90;;;;;;5084624;28;20063;-75
2022/03/22 01:51:23;;;;;;;42.20;26.45;;;6.10;99.90;;;;;;5062908;28;20092;-75
2022/03/22 01:53:50;;;;;;;37.85;25.30;;;6.00;99.90;;;;;;5086080;28;20058;-75
2022/03/22 01:56:16;;;;;;;39.85;24.13;;;6.00;99.90;;;;;;5068191;28;20067;-76
2022/03/22 01:58:41;;;;;;;36.90;24.02;;;6.00;99.90;;;;;;5084017;28;20098;-75
2022/03/22 02:06:39;;;;;;;38.65;24.00;;;5.90;99.90;;;;;;5087788;28;20127;-75
2022/03/22 02:09:04;;;;;;;36.58;22.85;;;5.90;99.90;;;;;;5095605;28;20047;-76
2022/03/22 02:11:31;;;;;;;35.22;22.65;;;5.90;99.90;;;;;;5099505;28;20474;-75
2022/03/22 02:13:57;;;;;;;36.75;24.67;;;5.80;99.90;;;;;;5095254;28;20040;-76
2022/03/22 02:16:22;;;;;;;38.53;23.38;;;5.90;99.90;;;;;;5099088;28;20049;-75
2022/03/22 02:18:50;;;;;;;36.80;23.02;;;5.80;99.90;;;;;;5096414;28;20410;-75
2022/03/22 02:21:18;;;;;;;38.00;23.52;;;5.80;99.90;;;;;;5094451;28;20063;-76
2022/03/22 02:23:49;;;;;;;35.55;22.52;;;5.80;99.90;;;;;;5098154;28;20059;-75
2022/03/22 02:26:16;;;;;;;37.97;23.60;;;5.80;99.90;;;;;;5095585;28;20040;-75
2022/03/22 02:28:42;;;;;;;40.80;24.40;;;5.70;99.90;;;;;;5094064;28;20122;-75
2022/03/22 02:31:08;;;;;;;42.35;24.25;;;5.70;99.90;;;;;;5097050;28;20080;-76
2022/03/22 02:33:33;;;;;;;37.70;22.92;;;5.70;99.90;;;;;;5081318;28;20047;-76
2022/03/22 02:35:59;;;;;;;39.25;23.58;;;5.70;99.90;;;;;;5097680;28;20055;-75
2022/03/22 02:38:24;;;;;;;40.65;24.08;;;5.60;99.90;;;;;;5084859;28;20039;-76
2022/03/22 02:40:50;;;;;;;37.28;23.27;;;5.60;99.90;;;;;;5095026;28;20042;-76
2022/03/22 02:43:16;;;;;;;37.70;24.13;;;5.70;99.90;;;;;;5080961;28;20051;-75
2022/03/22 02:45:42;;;;;;;39.60;24.48;;;5.60;99.90;;;;;;5096888;28;20120;-75
2022/03/22 02:48:07;;;;;;;39.80;24.15;;;5.60;99.90;;;;;;5102454;28;20091;-76
2022/03/22 02:50:33;;;;;;;37.90;23.83;;;5.60;99.90;;;;;;5095573;28;20056;-76
2022/03/22 02:53:00;;;;;;;40.60;25.80;;;5.50;99.90;;;;;;5099616;28;20040;-75
2022/03/22 02:55:26;;;;;;;42.25;25.52;;;5.60;99.90;;;;;;5103605;28;20063;-75
2022/03/22 02:57:52;;;;;;;42.88;24.85;;;5.50;99.90;;;;;;5103248;27;20104;-75
2022/03/22 03:00:17;;;;;;;40.88;24.73;;;5.50;99.90;;;;;;5108585;27;20526;-76
2022/03/22 03:02:46;;;;;;;38.33;25.15;;;5.50;99.90;;;;;;5102417;28;20047;-76
2022/03/22 03:05:12;;;;;;;40.53;24.45;;;5.40;99.90;;;;;;5102800;28;20044;-75
2022/03/22 03:07:38;;;;;;;41.15;25.05;;;5.40;99.90;;;;;;5099498;27;20039;-75
2022/03/22 03:10:05;;;;;;;38.72;23.85;;;5.40;99.90;;;;;;5102890;27;20036;-75
2022/03/22 03:12:31;;;;;;;43.55;25.75;;;5.40;99.90;;;;;;5108040;27;20043;-76
2022/03/22 03:14:57;;;;;;;40.70;24.70;;;5.40;99.90;;;;;;5085043;28;20459;-76
2022/03/22 03:17:22;;;;;;;37.97;24.40;;;5.40;99.90;;;;;;5077681;28;20078;-75
2022/03/22 03:19:48;;;;;;;40.83;25.98;;;5.40;99.90;;;;;;5077230;28;20066;-76
2022/03/22 03:22:14;;;;;;;43.67;25.42;;;5.40;99.90;;;;;;5080167;28;20052;-74
2022/03/22 03:24:39;;;;;;;41.45;24.80;;;5.40;99.90;;;;;;5089975;27;20060;-76
2022/03/22 03:27:05;;;;;;;45.70;26.05;;;5.40;99.90;;;;;;5102010;28;20046;-76
2022/03/22 03:29:30;;;;;;;45.67;26.50;;;5.40;99.90;;;;;;5103853;27;20479;-76
2022/03/22 03:31:56;;;;;;;44.90;25.67;;;5.30;99.90;;;;;;5105947;28;20403;-75
2022/03/22 03:34:22;;;;;;;42.30;26.13;;;5.30;99.90;;;;;;5104411;27;20035;-76
2022/03/22 03:36:48;;;;;;;40.78;24.20;;;5.30;99.90;;;;;;5101138;27;20044;-75
2022/03/22 03:39:14;;;;;;;44.15;25.83;;;5.30;99.90;;;;;;5089999;28;20035;-76
2022/03/22 03:41:55;;;;;;;38.75;24.88;;;5.30;99.90;;;;;;5100811;27;20085;-75
2022/03/22 03:47:11;;;;;;;40.50;25.52;;;5.20;99.90;;;;;;5089193;27;20109;-75
2022/03/22 03:49:46;;;;;;;41.17;26.00;;;5.20;99.90;;;;;;5093033;28;20535;-75
2022/03/22 03:52:20;;;;;;;39.23;24.97;;;5.20;99.90;;;;;;5092710;28;20039;-75
2022/03/22 03:54:46;;;;;;;42.78;26.05;;;5.20;99.90;;;;;;5072004;28;20505;-74
2022/03/22 03:57:12;;;;;;;40.25;25.05;;;5.20;99.90;;;;;;5091749;28;20127;-75
2022/03/22 03:59:40;;;;;;;42.17;25.52;;;5.20;99.90;;;;;;5089907;28;20052;-75
2022/03/22 04:02:07;;;;;;;43.65;24.92;;;5.20;99.90;;;;;;5089409;27;20054;-75
2022/03/22 04:04:35;;;;;;;43.17;25.10;;;5.20;99.90;;;;;;5088780;28;20149;-75
2022/03/22 04:07:01;;;;;;;41.83;25.40;;;5.20;99.90;;;;;;5087441;28;20048;-75
2022/03/22 04:09:27;;;;;;;41.38;25.45;;;5.20;99.90;;;;;;5085987;28;20434;-75
2022/03/22 04:11:53;;;;;;;44.05;26.58;;;5.20;99.90;;;;;;5085842;28;20040;-75
2022/03/22 04:14:19;;;;;;;41.00;25.48;;;5.20;99.90;;;;;;5087330;28;20096;-75
2022/03/22 04:16:46;;;;;;;39.25;25.50;;;5.20;99.90;;;;;;5070116;28;20358;-75
2022/03/22 04:19:12;;;;;;;38.65;25.75;;;5.10;99.90;;;;;;5085744;27;20044;-76
2022/03/22 04:21:39;;;;;;;41.10;25.10;;;5.20;99.90;;;;;;5072596;28;20485;-74
2022/03/22 04:24:06;;;;;;;41.00;25.00;;;5.10;99.90;;;;;;5089041;28;20036;-75
2022/03/22 04:26:34;;;;;;;40.72;24.75;;;5.10;99.90;;;;;;5094192;28;20055;-75
2022/03/22 04:34:28;;;;;;;44.22;25.33;;;5.10;99.90;;;;;;5088222;27;20104;-74
2022/03/22 04:36:55;;;;;;;41.63;24.73;;;5.10;99.90;;;;;;5086113;28;20134;-75
2022/03/22 04:39:23;;;;;;;40.92;25.63;;;5.10;99.90;;;;;;5087502;28;20052;-75
2022/03/22 04:41:49;;;;;;;40.33;25.13;;;5.00;99.90;;;;;;5070950;28;20679;-75
2022/03/22 04:44:16;;;;;;;40.45;25.02;;;5.10;99.90;;;;;;5087763;28;20062;-75
2022/03/22 04:46:42;;;;;;;42.80;25.65;;;5.00;99.90;;;;;;5098652;28;20147;-75
2022/03/22 04:49:08;;;;;;;41.53;25.17;;;5.00;99.90;;;;;;5098134;28;20553;-75
2022/03/22 04:57:03;;;;;;;37.97;24.92;;;5.00;99.90;;;;;;5087568;28;21250;-75
2022/03/22 04:59:28;;;;;;;44.20;26.48;;;5.00;99.90;;;;;;5087986;28;20052;-74
2022/03/22 05:01:54;;;;;;;41.53;25.77;;;5.00;99.90;;;;;;5086117;28;20093;-75
2022/03/22 05:04:20;;;;;;;41.33;24.77;;;5.00;99.90;;;;;;5086806;28;20505;-76
2022/03/22 05:06:46;;;;;;;41.83;25.27;;;5.00;99.90;;;;;;5087136;28;20477;-75
2022/03/22 05:09:12;;;;;;;40.63;25.02;;;4.90;99.90;;;;;;5086716;27;20395;-74
2022/03/22 05:11:39;;;;;;;39.67;24.75;;;4.90;99.90;;;;;;5069706;28;20094;-74
2022/03/22 05:14:04;;;;;;;40.80;26.42;;;4.90;99.90;;;;;;5088117;28;20062;-75
2022/03/22 05:16:30;;;;;;;41.97;26.05;;;4.90;99.90;;;;;;5085285;28;20434;-75
2022/03/22 05:18:57;;;;;;;40.58;25.85;;;4.90;99.90;;;;;;5100462;27;20039;-75
2022/03/22 05:21:24;;;;;;;39.65;25.17;;;4.80;99.90;;;;;;5103126;28;20052;-75
2022/03/22 05:23:51;;;;;;;45.22;25.35;;;4.90;99.90;;;;;;5091613;28;20150;-74
2022/03/22 05:26:17;;;;;;;39.97;25.30;;;4.80;99.90;;;;;;5085571;28;20032;-75
2022/03/22 05:28:44;;;;;;;38.55;24.85;;;4.80;99.90;;;;;;5065231;28;20043;-75
2022/03/22 05:31:12;;;;;;;40.72;25.65;;;4.80;99.90;;;;;;5085849;28;20138;-74
2022/03/22 05:33:41;;;;;;;41.95;26.77;;;4.80;99.90;;;;;;5085235;28;20749;-75
2022/03/22 05:36:08;;;;;;;42.28;26.10;;;4.80;99.90;;;;;;5085913;28;20044;-74
2022/03/22 05:38:34;;;;;;;43.70;27.17;;;4.80;99.90;;;;;;5084927;28;20544;-75
2022/03/22 05:41:03;;;;;;;37.90;25.42;;;4.80;99.90;;;;;;5086110;28;21246;-75
2022/03/22 05:43:29;;;;;;;44.30;26.27;;;4.80;99.90;;;;;;5068830;28;20066;-75
2022/03/22 05:45:55;;;;;;;41.78;26.27;;;4.80;99.90;;;;;;5074792;28;20039;-74
2022/03/22 05:48:22;;;;;;;42.70;26.85;;;4.80;99.90;;;;;;5096017;28;20405;-75
2022/03/22 05:50:47;;;;;;;42.47;25.27;;;4.80;99.90;;;;;;5088384;28;20059;-73
2022/03/22 05:53:14;;;;;;;44.35;27.02;;;4.80;99.90;;;;;;5105111;28;20090;-73
2022/03/22 05:55:40;;;;;;;42.50;25.98;;;4.80;99.90;;;;;;5098270;28;20036;-75
2022/03/22 05:58:07;;;;;;;41.50;26.33;;;4.80;99.90;;;;;;5100247;28;20103;-74
2022/03/22 06:01:17;;;;;;;41.75;26.75;;;4.80;99.90;;;;;;5101467;27;20050;-73
2022/03/22 06:03:42;;;;;;;45.30;27.08;;;4.90;99.90;;;;;;5075969;27;20139;-76
2022/03/22 06:06:08;;;;;;;44.13;26.63;;;4.90;99.90;;;;;;5101646;27;20127;-74
2022/03/22 06:08:34;;;;;;;41.40;25.98;;;4.90;99.90;;;;;;5099993;27;20287;-73
2022/03/22 06:10:59;;;;;;;44.90;27.95;;;5.00;99.90;;;;;;5100240;27;20382;-74
2022/03/22 06:13:25;;;;;;;47.25;29.35;;;5.00;99.90;;;;;;5099925;27;20043;-72
2022/03/22 06:15:52;;;;;;;47.92;29.13;;;4.90;99.90;;;;;;5101901;27;20039;-74
2022/03/22 06:18:17;;;;;;;42.33;27.85;;;5.00;99.90;;;;;;5104548;28;20119;-77
2022/03/22 06:20:44;;;;;;;41.17;26.77;;;5.00;99.90;;;;;;5102558;27;20469;-76
2022/03/22 06:23:12;;;;;;;43.17;27.92;;;5.10;99.90;;;;;;5092018;28;20051;-76
2022/03/22 06:25:41;;;;;;;44.35;27.02;;;5.10;99.90;;;;;;5111632;27;20678;-74
2022/03/22 06:28:09;;;;;;;41.15;25.75;;;5.10;99.90;;;;;;5109284;27;20039;-75
2022/03/22 06:30:36;;;;;;;49.50;29.70;;;5.20;99.90;;;;;;5073868;28;20138;-74
2022/03/22 06:33:13;;;;;;;45.55;28.80;;;5.30;99.90;;;;;;5101092;28;20043;-74
2022/03/22 06:35:39;;;;;;;44.15;28.25;;;5.30;99.90;;;;;;5096191;28;20035;-75
2022/03/22 06:38:05;;;;;;;46.28;29.85;;;5.40;99.90;;;;;;5105159;28;20111;-76
2022/03/22 06:40:34;;;;;;;46.10;29.33;;;5.50;99.90;;;;;;5097285;28;20473;-75
2022/03/22 06:43:04;;;;;;;48.22;28.70;;;5.60;99.90;;;;;;5098148;27;20104;-75
2022/03/22 06:45:29;;;;;;;43.15;27.75;;;5.70;99.90;;;;;;5078435;28;20438;-75
2022/03/22 06:47:55;;;;;;;46.00;28.30;;;5.70;99.90;;;;;;5083648;28;20130;-73
2022/03/22 06:50:21;;;;;;;47.20;29.05;;;5.70;99.90;;;;;;5110927;27;20108;-74
2022/03/22 06:52:47;;;;;;;48.90;30.25;;;5.80;99.90;;;;;;5108309;28;20058;-73
2022/03/22 06:55:16;;;;;;;46.92;29.30;;;5.90;99.90;;;;;;5102226;28;20123;-74
2022/03/22 06:57:42;;;;;;;45.78;29.02;;;6.00;99.90;;;;;;5083772;28;20041;-74
2022/03/22 07:00:10;;;;;;;47.20;30.02;;;6.10;99.90;;;;;;5090896;28;20046;-74
2022/03/22 07:02:38;;;;;;;46.28;29.67;;;6.10;99.90;;;;;;5054546;28;20546;-74
2022/03/22 07:05:04;;;;;;;46.13;29.95;;;6.20;99.90;;;;;;5107906;28;20069;-73
2022/03/22 07:07:30;;;;;;;44.80;29.95;;;6.30;99.90;;;;;;5108517;28;20072;-73
2022/03/22 07:09:55;;;;;;;51.63;30.17;;;6.40;99.90;;;;;;5089772;28;20044;-73
2022/03/22 07:12:21;;;;;;;45.55;29.40;;;6.50;99.90;;;;;;5106316;28;20043;-74
2022/03/22 07:14:46;;;;;;;49.53;30.63;;;6.60;99.90;;;;;;5107900;28;20040;-74
2022/03/22 07:17:12;;;;;;;48.92;30.45;;;6.60;99.90;;;;;;5098713;28;20040;-74
2022/03/22 07:19:38;;;;;;;44.40;28.75;;;6.70;99.90;;;;;;5087331;28;20112;-73
2022/03/22 07:22:05;;;;;;;41.97;28.60;;;6.80;99.90;;;;;;5080187;28;20172;-73
2022/03/22 07:24:31;;;;;;;45.97;30.30;;;6.90;99.90;;;;;;5087211;28;20119;-73
2022/03/22 07:26:56;;;;;;;47.15;30.10;;;7.00;99.90;;;;;;5087195;28;20174;-73
2022/03/22 07:29:22;;;;;;;48.45;29.27;;;7.10;99.90;;;;;;5087805;28;20409;-74
2022/03/22 07:31:47;;;;;;;45.00;30.00;;;7.20;99.90;;;;;;5077431;28;20048;-73
2022/03/22 07:34:15;;;;;;;46.28;28.85;;;7.30;99.90;;;;;;5089843;28;20050;-73
2022/03/22 07:36:45;;;;;;;46.55;28.80;;;7.30;99.90;;;;;;5106154;28;20048;-73
2022/03/22 07:39:11;;;;;;;43.63;27.33;;;7.40;99.90;;;;;;5089465;28;20054;-73
2022/03/22 07:41:38;;;;;;;44.55;29.27;;;7.50;99.90;;;;;;5097442;27;20067;-73
2022/03/22 07:44:07;;;;;;;45.13;28.02;;;7.60;99.90;;;;;;5090714;28;20048;-74
2022/03/22 07:46:33;;;;;;;42.40;28.02;;;7.70;99.90;;;;;;5072685;28;20122;-74
2022/03/22 07:52:58;;;;;;;44.78;28.25;;;7.80;99.90;;;;;;5072449;28;20180;-73
2022/03/22 07:54:30;;;;;;;41.78;28.88;;;8.10;99.90;;;;;;5111713;28;20283;-74
2022/03/22 07:56:56;;;;;;;42.65;27.52;;;8.10;99.90;;;;;;5091434;28;20370;-74
2022/03/22 07:59:24;;;;;;;41.90;27.90;;;8.20;99.90;;;;;;5110365;28;20130;-73
2022/03/22 08:01:51;;;;;;;41.38;27.65;;;8.40;99.90;;;;;;5106229;28;20051;-74
2022/03/22 08:04:17;;;;;;;41.15;27.45;;;8.40;99.90;;;;;;5091261;28;20085;-73
2022/03/22 08:06:42;;;;;;;42.92;27.13;;;8.50;99.90;;;;;;5090364;28;20044;-74
2022/03/22 08:09:08;;;;;;;42.10;27.50;;;8.60;99.90;;;;;;5073085;28;20059;-74
2022/03/22 08:11:34;;;;;;;40.83;26.17;;;8.70;99.90;;;;;;5090611;27;20446;-74
2022/03/22 08:14:01;;;;;;;41.08;27.38;;;8.80;99.90;;;;;;5089584;28;20124;-74
2022/03/22 08:16:27;;;;;;;36.47;24.50;;;8.90;99.90;;;;;;5081949;28;20048;-74
2022/03/22 08:18:53;;;;;;;38.15;25.80;;;9.00;99.90;;;;;;5109430;28;20093;-74
2022/03/22 08:21:19;;;;;;;32.63;23.05;;;9.10;99.90;;;;;;5111211;28;20074;-74
2022/03/22 08:23:44;;;;;;;35.20;24.15;;;9.20;99.90;;;;;;5090865;27;20146;-74
2022/03/22 08:26:10;;;;;;;35.47;24.70;;;9.30;99.90;;;;;;5090308;28;20406;-74
2022/03/22 08:28:36;;;;;;;35.15;23.23;;;9.50;99.90;;;;;;5088815;28;20433;-74
2022/03/22 08:31:02;;;;;;;35.00;23.75;;;9.50;99.90;;;;;;5085983;28;20434;-74
2022/03/22 08:33:28;;;;;;;37.95;23.70;;;9.60;99.90;;;;;;5111370;28;20059;-74
2022/03/22 08:35:53;;;;;;;34.10;24.08;;;9.60;99.90;;;;;;5091493;28;20075;-74
2022/03/22 08:38:20;;;;;;;36.35;23.10;;;9.70;99.90;;;;;;5111265;28;20062;-74
2022/03/22 08:40:48;;;;;;;31.98;22.65;;;9.80;99.90;;;;;;5110215;28;20061;-74
2022/03/22 08:43:13;;;;;;;33.80;23.00;;;9.90;99.90;;;;;;5091609;28;20139;-74
2022/03/22 08:45:39;;;;;;;36.60;24.42;;;10.00;99.90;;;;;;5100648;28;20174;-74
2022/03/22 08:48:12;;;;;;;33.20;22.98;;;10.10;99.90;;;;;;5110336;28;20105;-74
2022/03/22 08:50:49;;;;;;;31.95;21.70;;;10.20;99.90;;;;;;5108619;28;20043;-73
2022/03/22 08:53:16;;;;;;;32.90;22.30;;;10.40;99.90;;;;;;5091014;28;20051;-74
2022/03/22 08:55:44;;;;;;;37.00;23.77;;;10.50;99.90;;;;;;5089398;28;20056;-74
2022/03/22 08:58:10;;;;;;;32.47;23.25;;;10.50;99.90;;;;;;5070368;28;20044;-73
2022/03/22 09:00:37;;;;;;;31.90;22.73;;;10.60;99.90;;;;;;5101639;28;20198;-73
2022/03/22 09:03:04;;;;;;;34.30;22.77;;;10.70;99.90;;;;;;5090919;28;20128;-74
2022/03/22 09:08:14;;;;;;;34.47;23.23;;;10.90;99.90;;;;;;5090296;28;20127;-74
2022/03/22 09:10:41;;;;;;;34.65;22.98;;;11.00;99.90;;;;;;5089436;28;20554;-74
2022/03/22 09:13:07;;;;;;;33.58;23.08;;;11.10;99.90;;;;;;5076512;28;20143;-74
2022/03/22 09:15:36;;;;;;;33.10;22.75;;;11.20;99.90;;;;;;5106926;28;20109;-74
2022/03/22 09:18:02;;;;;;;32.10;21.95;;;11.40;99.90;;;;;;5107946;28;20067;-74
2022/03/22 09:20:32;;;;;;;32.47;22.02;;;11.40;99.90;;;;;;5110048;28;20032;-74
2022/03/22 09:23:00;;;;;;;30.98;21.30;;;11.50;99.90;;;;;;5109600;28;20144;-74
2022/03/22 09:25:27;;;;;;;31.42;20.67;;;11.60;99.90;;;;;;5107269;28;20040;-74
2022/03/22 09:27:54;;;;;;;29.67;20.63;;;11.80;99.90;;;;;;5089346;27;20040;-74
2022/03/22 09:30:20;;;;;;;29.23;20.98;;;11.90;99.90;;;;;;5080209;28;20079;-74
2022/03/22 09:32:46;;;;;;;31.95;20.98;;;12.00;99.90;;;;;;5108942;28;20078;-74
2022/03/22 09:35:13;;;;;;;31.50;21.45;;;12.10;99.90;;;;;;5109699;28;20043;-74
2022/03/22 09:37:41;;;;;;;33.15;21.10;;;12.30;99.90;;;;;;5109446;28;20067;-74
2022/03/22 09:40:08;;;;;;;30.73;21.35;;;12.30;99.90;;;;;;5108741;28;20497;-74
2022/03/22 09:42:38;;;;;;;34.45;21.67;;;12.50;99.90;;;;;;5095935;27;20090;-75
2022/03/22 09:45:08;;;;;;;32.00;22.23;;;12.60;99.90;;;;;;5088494;28;20060;-74
2022/03/22 09:47:35;;;;;;;32.25;21.67;;;12.60;99.90;;;;;;5070439;28;20063;-74
2022/03/22 09:50:03;;;;;;;29.63;21.38;;;12.70;99.90;;;;;;5081673;28;20046;-74
2022/03/22 09:52:29;;;;;;;32.28;22.30;;;12.70;99.90;;;;;;5099408;27;20081;-74
2022/03/22 09:54:55;;;;;;;33.75;21.55;;;12.80;99.90;;;;;;5103415;28;20039;-74
2022/03/22 09:57:20;;;;;;;29.25;20.30;;;12.90;99.90;;;;;;5107722;28;20494;-75
2022/03/22 09:59:46;;;;;;;31.17;21.27;;;12.90;99.90;;;;;;5110209;28;20055;-75
2022/03/22 10:02:11;;;;;;;30.95;21.50;;;13.00;99.90;;;;;;5088038;28;20048;-74
2022/03/22 10:04:41;;;;;;;31.30;21.13;;;13.10;99.70;;;;;;5095502;28;20126;-74
2022/03/22 10:07:15;;;;;;;31.17;20.42;;;13.20;99.30;;;;;;5090229;28;20043;-74
2022/03/22 10:09:42;;;;;;;30.80;21.73;;;13.30;99.30;;;;;;5090846;28;20058;-74
2022/03/22 10:12:10;;;;;;;29.70;20.95;;;13.40;99.10;;;;;;5107132;28;20297;-74
2022/03/22 10:14:40;;;;;;;32.33;21.50;;;13.50;99.30;;;;;;5108212;28;20358;-75
2022/03/22 10:17:14;;;;;;;33.35;21.33;;;13.50;99.30;;;;;;5072591;28;20055;-74
2022/03/22 10:19:42;;;;;;;29.73;20.98;;;13.60;99.50;;;;;;5072135;28;20048;-75
2022/03/22 10:22:10;;;;;;;31.42;20.75;;;13.70;99.60;;;;;;5102056;28;20040;-74
2022/03/22 10:24:43;;;;;;;28.33;19.65;;;13.80;99.40;;;;;;5100782;28;20053;-74
2022/03/22 10:27:29;;;;;;;25.42;18.00;;;13.90;98.40;;;;;;5107920;28;20050;-74
2022/03/22 10:29:56;;;;;;;27.23;18.45;;;13.90;95.90;;;;;;5108490;28;20039;-74
2022/03/22 10:32:33;;;;;;;29.10;18.95;;;14.10;96.60;;;;;;5107842;28;20035;-75
2022/03/22 10:35:25;;;;;;;27.60;17.92;;;14.20;96.00;;;;;;5107723;28;20137;-74
2022/03/22 10:38:00;;;;;;;29.83;19.15;;;14.30;95.10;;;;;;5107564;28;20093;-74
2022/03/22 10:40:34;;;;;;;27.85;20.15;;;14.40;95.10;;;;;;5108850;28;20394;-74
2022/03/22 10:43:06;;;;;;;28.73;19.90;;;14.50;94.80;;;;;;5061142;28;20161;-75
2022/03/22 10:45:46;;;;;;;28.13;19.20;;;14.50;94.70;;;;;;5076926;28;20089;-74
2022/03/22 10:48:23;;;;;;;28.65;18.92;;;14.60;94.30;;;;;;5107932;28;20497;-74
2022/03/22 10:50:50;;;;;;;28.00;19.42;;;14.60;94.20;;;;;;5107713;28;20043;-74
2022/03/22 10:53:17;;;;;;;27.08;18.38;;;14.70;94.50;;;;;;5104834;28;20058;-74
2022/03/22 10:55:44;;;;;;;29.65;19.52;;;14.80;93.80;;;;;;5086288;28;20453;-74
2022/03/22 10:58:18;;;;;;;28.42;20.15;;;14.80;93.30;;;;;;5107125;28;20058;-74
2022/03/22 11:00:45;;;;;;;27.15;18.27;;;14.90;93.30;;;;;;5108492;28;20079;-74
2022/03/22 11:03:12;;;;;;;26.95;18.17;;;14.90;93.60;;;;;;5088306;28;20457;-75
2022/03/22 11:05:40;;;;;;;25.65;16.98;;;15.00;93.00;;;;;;5107827;28;20050;-74
2022/03/22 11:08:07;;;;;;;24.55;17.20;;;15.10;91.90;;;;;;5108464;28;20119;-74
2022/03/22 11:10:32;;;;;;;24.63;17.45;;;15.20;91.90;;;;;;5106529;28;20490;-74
2022/03/22 11:12:59;;;;;;;24.35;17.05;;;15.30;91.50;;;;;;5105429;28;20036;-75
2022/03/22 11:15:38;;;;;;;27.35;16.85;;;15.30;91.50;;;;;;5110988;28;20122;-74
2022/03/22 11:18:06;;;;;;;27.63;18.83;;;15.30;90.90;;;;;;5110170;28;20047;-75
2022/03/22 11:20:32;;;;;;;27.90;19.13;;;15.40;91.20;;;;;;5112375;28;20050;-75
2022/03/22 11:23:00;;;;;;;27.27;17.20;;;15.50;90.40;;;;;;5081373;28;20052;-74
2022/03/22 11:25:34;;;;;;;25.60;17.92;;;15.50;90.60;;;;;;5111873;28;20051;-74
2022/03/22 11:28:08;;;;;;;24.73;17.27;;;15.60;90.40;;;;;;5091911;28;20044;-74
2022/03/22 11:30:37;;;;;;;26.33;17.95;;;15.60;90.10;;;;;;5112587;28;20507;-74
2022/03/22 11:35:57;;;;;;;23.98;17.05;;;15.60;88.30;;;;;;5109740;28;20048;-74
2022/03/22 11:38:42;;;;;;;27.83;17.70;;;15.70;86.80;;;;;;5092405;28;20073;-75
2022/03/22 11:44:14;;;;;;;29.48;18.40;;;15.70;85.70;;;;;;5099750;28;20411;-74
2022/03/22 11:46:41;;;;;;;26.35;17.85;;;15.80;88.10;;;;;;5108508;28;20085;-74
2022/03/22 11:49:18;;;;;;;27.15;19.15;;;15.90;87.70;;;;;;5111657;28;20667;-74
2022/03/22 11:51:56;;;;;;;28.42;18.48;;;15.90;86.80;;;;;;5109795;28;20265;-75
2022/03/22 11:54:26;;;;;;;27.73;18.83;;;16.00;84.50;;;;;;5109956;28;20039;-74
2022/03/22 11:56:58;;;;;;;28.30;19.60;;;16.00;85.00;;;;;;5087700;28;20455;-73
2022/03/22 11:59:24;;;;;;;26.02;17.77;;;16.10;85.60;;;;;;5104903;27;20075;-74
2022/03/22 12:02:01;;;;;;;28.40;17.98;;;16.10;83.20;;;;;;5090769;28;20047;-74
2022/03/22 12:04:39;;;;;;;27.40;18.48;;;16.10;81.10;;;;;;5079777;28;20075;-74
2022/03/22 12:07:07;;;;;;;27.35;18.13;;;16.20;80.90;;;;;;5090847;28;20044;-74
2022/03/22 12:09:36;;;;;;;28.23;18.45;;;16.30;81.90;;;;;;5094650;27;20039;-74
2022/03/22 12:12:06;;;;;;;27.83;17.98;;;16.40;82.00;;;;;;5110392;28;20047;-74
2022/03/22 12:14:34;;;;;;;27.40;19.08;;;16.40;81.40;;;;;;5110322;27;20048;-74
2022/03/22 12:17:00;;;;;;;28.45;18.77;;;16.50;80.50;;;;;;5108979;27;20048;-74
2022/03/22 12:19:32;;;;;;;28.00;18.67;;;16.50;80.50;;;;;;5098028;28;20111;-74
2022/03/22 12:22:00;;;;;;;26.67;18.67;;;16.60;80.20;;;;;;5100174;27;20044;-75
2022/03/22 12:24:30;;;;;;;29.60;19.70;;;16.60;79.20;;;;;;5098096;27;20127;-75
2022/03/22 12:26:56;;;;;;;28.13;18.40;;;16.70;78.70;;;;;;5105712;28;20100;-73
2022/03/22 12:29:22;;;;;;;30.75;19.23;;;16.70;76.00;;;;;;5113795;27;20035;-74
2022/03/22 12:31:50;;;;;;;26.52;17.58;;;16.70;76.60;;;;;;5099483;28;20080;-74
2022/03/22 12:34:15;;;;;;;25.13;18.65;;;16.80;74.30;;;;;;5118632;27;20078;-74
2022/03/22 12:36:42;;;;;;;31.73;19.38;;;16.80;74.50;;;;;;5120624;27;20473;-73
2022/03/22 12:39:08;;;;;;;26.80;18.95;;;16.90;76.30;;;;;;5112627;27;20461;-73
2022/03/22 12:41:34;;;;;;;28.40;19.35;;;16.90;73.50;;;;;;5113609;27;20097;-73
2022/03/22 12:44:00;;;;;;;25.88;18.10;;;17.00;72.60;;;;;;5097541;27;20457;-73
2022/03/22 12:46:26;;;;;;;31.77;19.33;;;17.00;74.10;;;;;;5113572;27;20047;-73
2022/03/22 12:48:52;;;;;;;28.83;19.83;;;17.00;74.00;;;;;;5124650;27;20143;-72
2022/03/22 12:51:18;;;;;;;29.45;18.88;;;17.00;73.10;;;;;;5111984;28;20081;-73
2022/03/22 12:53:46;;;;;;;26.80;17.63;;;17.10;72.80;;;;;;5108473;28;20101;-73
2022/03/22 12:56:19;;;;;;;26.15;18.13;;;17.10;72.80;;;;;;5101019;27;20044;-72
2022/03/22 12:58:46;;;;;;;23.98;16.45;;;17.20;71.00;;;;;;5079270;28;20043;-73
2022/03/22 13:01:12;;;;;;;26.48;17.80;;;17.20;71.60;;;;;;5110659;28;20140;-73
2022/03/22 13:03:38;;;;;;;24.77;15.48;;;17.30;71.40;;;;;;5109693;28;20566;-73
2022/03/22 13:06:06;;;;;;;26.00;15.73;;;17.40;70.50;;;;;;5109984;28;20043;-72